Impacts METAR Board INFO
IDs:

KORD - Chicago/O'Hare Intl, IL, US

Updated at: 0808 UTC 15 Dec 2017
Potential Impact None Slight Moderate High
Time14/20Z 14/21Z 14/22Z 14/23Z 15/00Z 15/01Z 15/02Z 15/03Z 15/04Z 15/05Z 15/06Z 15/07Z 15/08Z
VIS10 10 10 10 10 10 10 10 9 10 10 10 10
CIG250 250 250 -- -- -- -- 110 100 100 100 100 26
CoverBKNBKNBKNFEWFEWFEWFEWBKNBKNBKNOVCOVCOVC
FltCatVFRVFRVFRVFRVFRVFRVFRVFRVFRVFRVFRVFRMVFR
WX--------------------------
WDir300300240260260270240250240220220240230
WSpd5 3 4 4 4 3 3 3 3 4 5 5 6
WGst-- -- -- -- -- -- -- -- -- -- -- -- --
Raw hourly METARs
KORD 141951Z 30005KT 10SM FEW032 BKN250 M03/M13 A3004 RMK AO2 SLP180 T10331128 $
KORD 142051Z 30003KT 10SM FEW032 BKN250 M03/M14 A3004 RMK AO2 SLP182 T10331139 55005
KORD 142151Z 24004KT 10SM FEW032 SCT200 BKN250 M04/M13 A3005 RMK AO2 SLP186 T10441128
KORD 142251Z 26004KT 10SM FEW032 FEW250 M05/M13 A3006 RMK AO2 SLP188 T10501128 $
KORD 142351Z COR 26004KT 10SM FEW250 M06/M12 A3007 RMK AO2 SLP192 T10561122 11028 21056 53009 $
KORD 150051Z 27003KT 10SM FEW250 M06/M12 A3007 RMK AO2 SLP194 T10611117 $
KORD 150151Z 24003KT 10SM FEW100 M06/M12 A3006 RMK AO2 SLP191 T10611117 $
KORD 150251Z 25003KT 10SM BKN110 M06/M12 A3006 RMK AO2 SLP189 T10611117 58003 $
KORD 150351Z 24003KT 9SM BKN100 M07/M12 A3005 RMK AO2 SLP186 T10671117 $
KORD 150451Z 22004KT 10SM BKN100 M07/M12 A3003 RMK AO2 SLP180 T10671117 $
KORD 150551Z 22005KT 10SM OVC100 M06/M12 A3000 RMK AO2 SLP168 T10611117 11050 21067 410281089 58019 $
KORD 150651Z 24005KT 10SM FEW025 OVC100 M06/M11 A2999 RMK AO2 SLP164 T10561111 $
KORD 150751Z 23006KT 10SM OVC026 M05/M10 A2996 RMK AO2 SLP154 T10501100 $